Time;durP1;ratioP1;P1;durP2;ratioP2;P2;SDS_P1;SDS_P2;PMS_P1;PMS_P2;Temp;Humidity;BMP_temperature;BMP_pressure;BME280_temperature;BME280_humidity;BME280_pressure;Samples;Min_cycle;Max_cycle;Signal;HPM_P1;HPM_P2
2021/09/19 00:01:44;;;;;;;;;;;21.40;70.70;;;;;;5033737;28;1608;-71
2021/09/19 00:04:10;;;;;;;;;;;21.40;70.80;;;;;;5033695;28;1674;-71
2021/09/19 00:06:35;;;;;;;;;;;21.40;70.80;;;;;;5032990;28;1906;-71
2021/09/19 00:09:01;;;;;;;;;;;21.40;70.80;;;;;;5032158;28;1589;-71
2021/09/19 00:11:26;;;;;;;;;;;21.40;70.90;;;;;;5033592;28;1358;-71
2021/09/19 00:13:51;;;;;;;;;;;21.40;70.80;;;;;;5033543;28;1702;-71
2021/09/19 00:16:17;;;;;;;;;;;21.40;70.80;;;;;;5032936;28;1350;-71
2021/09/19 00:18:43;;;;;;;;;;;21.40;70.90;;;;;;5033414;28;1434;-71
2021/09/19 00:21:08;;;;;;;;;;;21.40;70.90;;;;;;5032250;28;1604;-72
2021/09/19 00:23:33;;;;;;;;;;;21.40;71.30;;;;;;5032150;28;1592;-71
2021/09/19 00:25:59;;;;;;;;;;;21.40;71.00;;;;;;5032893;28;1898;-71
2021/09/19 00:28:24;;;;;;;;;;;21.40;71.00;;;;;;5033227;28;1583;-72
2021/09/19 00:30:50;;;;;;;;;;;21.40;71.00;;;;;;5033272;28;1166;-71
2021/09/19 00:33:15;;;;;;;;;;;21.40;71.00;;;;;;5033241;28;1346;-71
2021/09/19 00:35:41;;;;;;;;;;;21.40;71.00;;;;;;5031360;28;1615;-71
2021/09/19 00:38:06;;;;;;;;;;;21.40;71.00;;;;;;5033080;28;1679;-70
2021/09/19 00:40:32;;;;;;;;;;;21.40;71.00;;;;;;5031948;28;1130;-71
2021/09/19 00:42:57;;;;;;;;;;;21.40;71.10;;;;;;5033173;28;1805;-71
2021/09/19 00:45:23;;;;;;;;;;;21.40;71.10;;;;;;5032919;28;1672;-71
2021/09/19 00:47:48;;;;;;;;;;;21.30;71.00;;;;;;5032636;28;1902;-71
2021/09/19 00:50:14;;;;;;;;;;;21.30;71.00;;;;;;5031762;28;1616;-71
2021/09/19 00:52:40;;;;;;;;;;;21.30;71.00;;;;;;5032971;28;1362;-71
2021/09/19 00:55:06;;;;;;;;;;;21.30;71.00;;;;;;5032907;28;1002;-71
2021/09/19 00:57:31;;;;;;;;;;;21.30;71.00;;;;;;5032591;28;1607;-71
2021/09/19 00:59:57;;;;;;;;;;;21.30;71.10;;;;;;5031581;28;1408;-71
2021/09/19 01:02:22;;;;;;;;;;;21.30;71.10;;;;;;5031452;28;1335;-71
2021/09/19 01:04:48;;;;;;;;;;;21.30;71.10;;;;;;5031752;28;1434;-71
2021/09/19 01:07:13;;;;;;;;;;;21.30;71.10;;;;;;5032024;28;1976;-71
2021/09/19 01:09:39;;;;;;;;;;;21.30;71.10;;;;;;5028630;28;1593;-71
2021/09/19 01:12:04;;;;;;;;;;;21.30;71.10;;;;;;5031067;28;1353;-71
2021/09/19 01:14:30;;;;;;;;;;;21.30;71.10;;;;;;5031817;28;1389;-71
2021/09/19 01:16:56;;;;;;;;;;;21.30;71.20;;;;;;5030797;28;1408;-71
2021/09/19 01:19:22;;;;;;;;;;;21.30;71.20;;;;;;5034014;28;1385;-71
2021/09/19 01:21:48;;;;;;;;;;;21.30;71.20;;;;;;5036709;28;1676;-71
2021/09/19 01:24:14;;;;;;;;;;;21.30;71.20;;;;;;5037146;28;815;-71
2021/09/19 01:26:39;;;;;;;;;;;21.30;71.20;;;;;;5035086;28;1910;-71
2021/09/19 01:29:06;;;;;;;;;;;21.30;71.20;;;;;;5035731;28;1696;-71
2021/09/19 01:31:31;;;;;;;;;;;21.30;71.20;;;;;;5036796;28;1428;-71
2021/09/19 01:33:57;;;;;;;;;;;21.30;71.30;;;;;;5036821;28;1700;-71
2021/09/19 01:36:22;;;;;;;;;;;21.30;71.30;;;;;;5035926;28;1310;-71
2021/09/19 01:38:47;;;;;;;;;;;21.30;71.30;;;;;;5036330;28;1672;-70
2021/09/19 01:41:20;;;;;;;;;;;21.30;71.30;;;;;;5034990;28;1575;-70
2021/09/19 01:43:45;;;;;;;;;;;21.30;72.10;;;;;;5035459;28;809;-71
2021/09/19 01:46:10;;;;;;;;;;;21.30;71.30;;;;;;5035701;28;1902;-71
2021/09/19 01:48:36;;;;;;;;;;;21.30;71.30;;;;;;5036076;28;1415;-71
2021/09/19 01:51:05;;;;;;;;;;;21.30;71.30;;;;;;5034686;28;1559;-70
2021/09/19 01:53:30;;;;;;;;;;;21.30;71.40;;;;;;5036124;28;1328;-71
2021/09/19 01:55:56;;;;;;;;;;;21.30;71.30;;;;;;5035507;28;1485;-71
2021/09/19 01:58:22;;;;;;;;;;;21.30;71.40;;;;;;5036031;28;1365;-70
2021/09/19 02:00:47;;;;;;;;;;;21.30;71.40;;;;;;5033234;28;1684;-70
2021/09/19 02:03:13;;;;;;;;;;;21.30;71.40;;;;;;5024087;28;793;-71
2021/09/19 02:05:38;;;;;;;;;;;21.30;71.40;;;;;;5035493;28;1613;-72
2021/09/19 02:08:03;;;;;;;;;;;21.30;71.40;;;;;;5035737;28;2035;-71
2021/09/19 02:10:29;;;;;;;;;;;21.30;71.50;;;;;;5035547;28;1402;-72
2021/09/19 02:12:54;;;;;;;;;;;21.20;71.40;;;;;;5035766;28;1402;-71
2021/09/19 02:15:20;;;;;;;;;;;21.30;71.40;;;;;;5035885;28;1615;-71
2021/09/19 02:17:45;;;;;;;;;;;21.20;71.40;;;;;;5034355;28;1385;-71
2021/09/19 02:20:11;;;;;;;;;;;21.30;71.50;;;;;;5035078;28;1337;-71
2021/09/19 02:22:37;;;;;;;;;;;21.30;71.50;;;;;;5032642;28;1347;-71
2021/09/19 02:25:02;;;;;;;;;;;21.20;71.40;;;;;;5027879;28;1583;-71
2021/09/19 02:27:28;;;;;;;;;;;21.20;71.40;;;;;;5026630;28;1899;-71
2021/09/19 02:29:53;;;;;;;;;;;21.30;71.50;;;;;;5024995;28;1465;-71
2021/09/19 02:32:19;;;;;;;;;;;21.20;71.40;;;;;;5025508;28;1573;-72
2021/09/19 02:34:44;;;;;;;;;;;21.20;71.40;;;;;;5025690;28;1485;-71
2021/09/19 02:37:09;;;;;;;;;;;21.20;71.50;;;;;;5027993;28;1718;-71
2021/09/19 02:39:35;;;;;;;;;;;21.20;71.50;;;;;;5031332;28;1576;-70
2021/09/19 02:42:00;;;;;;;;;;;21.20;71.50;;;;;;5035275;28;1436;-70
2021/09/19 02:44:26;;;;;;;;;;;21.20;71.50;;;;;;5035686;28;1057;-71
2021/09/19 02:46:51;;;;;;;;;;;21.20;71.50;;;;;;5034883;28;1910;-71
2021/09/19 02:49:17;;;;;;;;;;;21.20;71.50;;;;;;5035463;28;1685;-71
2021/09/19 02:51:43;;;;;;;;;;;21.20;71.50;;;;;;5035274;28;1289;-71
2021/09/19 02:54:08;;;;;;;;;;;21.20;71.60;;;;;;5035614;28;1411;-71
2021/09/19 02:56:33;;;;;;;;;;;21.20;71.60;;;;;;5034860;28;1436;-71
2021/09/19 02:58:59;;;;;;;;;;;21.20;71.50;;;;;;5035313;28;1652;-71
2021/09/19 03:01:24;;;;;;;;;;;21.20;71.60;;;;;;5028707;28;1278;-72
2021/09/19 03:03:50;;;;;;;;;;;21.20;71.60;;;;;;5028249;28;1717;-70
2021/09/19 03:06:16;;;;;;;;;;;21.20;71.60;;;;;;5034615;28;1906;-71
2021/09/19 03:08:41;;;;;;;;;;;21.20;71.60;;;;;;5035120;28;1373;-71
2021/09/19 03:11:06;;;;;;;;;;;21.20;71.60;;;;;;5035057;28;1425;-71
2021/09/19 03:13:32;;;;;;;;;;;21.20;71.60;;;;;;5035169;28;1624;-70
2021/09/19 03:15:57;;;;;;;;;;;21.20;71.60;;;;;;5034461;28;1399;-71
2021/09/19 03:18:23;;;;;;;;;;;21.20;71.60;;;;;;5034887;28;1729;-70
2021/09/19 03:20:48;;;;;;;;;;;21.20;71.60;;;;;;5034771;28;1689;-71
2021/09/19 03:23:14;;;;;;;;;;;21.20;71.60;;;;;;5034964;28;1370;-68
2021/09/19 03:25:40;;;;;;;;;;;21.20;71.60;;;;;;5034317;28;1648;-71
2021/09/19 03:28:05;;;;;;;;;;;21.20;71.60;;;;;;5034552;28;1907;-72
2021/09/19 03:30:31;;;;;;;;;;;21.20;71.70;;;;;;5034659;28;1620;-71
2021/09/19 03:32:56;;;;;;;;;;;21.20;71.70;;;;;;5034476;28;1104;-71
2021/09/19 03:35:22;;;;;;;;;;;21.20;71.70;;;;;;5034434;28;1419;-72
2021/09/19 03:37:47;;;;;;;;;;;21.20;71.70;;;;;;5055593;23;2154;-73
2021/09/19 03:40:12;;;;;;;;;;;21.20;71.70;;;;;;5053071;28;1658;-73
2021/09/19 03:42:38;;;;;;;;;;;21.20;71.70;;;;;;5054043;28;1445;-73
2021/09/19 03:45:04;;;;;;;;;;;21.20;71.70;;;;;;5036644;28;1704;-73
2021/09/19 03:47:29;;;;;;;;;;;21.20;71.70;;;;;;5022007;28;1981;-73
2021/09/19 03:49:54;;;;;;;;;;;21.20;71.70;;;;;;5016626;28;1608;-73
2021/09/19 03:52:20;;;;;;;;;;;21.20;71.70;;;;;;5034265;28;1403;-73
2021/09/19 03:54:45;;;;;;;;;;;21.20;71.70;;;;;;5034152;28;1415;-72
2021/09/19 03:57:11;;;;;;;;;;;21.20;71.70;;;;;;5016128;28;1258;-73
2021/09/19 03:59:36;;;;;;;;;;;21.20;71.70;;;;;;5034133;28;1383;-72
2021/09/19 04:02:02;;;;;;;;;;;21.20;71.70;;;;;;5033981;28;887;-73
2021/09/19 04:04:27;;;;;;;;;;;21.20;71.70;;;;;;5034120;28;1723;-73
2021/09/19 04:06:53;;;;;;;;;;;21.20;71.70;;;;;;5033617;28;1882;-73
2021/09/19 04:09:18;;;;;;;;;;;21.20;71.80;;;;;;5016519;28;1433;-73
2021/09/19 04:11:43;;;;;;;;;;;21.20;71.80;;;;;;5034023;28;780;-73
2021/09/19 04:14:09;;;;;;;;;;;21.20;71.80;;;;;;5016320;28;1229;-73
2021/09/19 04:16:34;;;;;;;;;;;21.20;71.80;;;;;;5033271;28;1394;-73
2021/09/19 04:19:01;;;;;;;;;;;21.20;71.80;;;;;;5033600;28;1630;-73
2021/09/19 04:21:27;;;;;;;;;;;21.20;71.80;;;;;;5033664;28;1369;-73
2021/09/19 04:23:52;;;;;;;;;;;21.20;71.80;;;;;;5033515;28;1423;-73
2021/09/19 04:26:18;;;;;;;;;;;21.20;71.80;;;;;;5015527;28;1898;-74
2021/09/19 04:28:43;;;;;;;;;;;21.20;71.80;;;;;;5033556;28;1128;-73
2021/09/19 04:31:09;;;;;;;;;;;21.20;71.80;;;;;;5033416;28;1634;-73
2021/09/19 04:33:34;;;;;;;;;;;21.20;71.80;;;;;;5015692;28;1420;-74
2021/09/19 04:35:59;;;;;;;;;;;21.20;72.60;;;;;;4998834;28;1163;-73
2021/09/19 04:38:25;;;;;;;;;;;21.20;71.80;;;;;;5033456;28;1145;-73
2021/09/19 04:40:50;;;;;;;;;;;21.20;71.90;;;;;;5033397;28;1348;-73
2021/09/19 04:43:16;;;;;;;;;;;21.20;71.90;;;;;;5033498;28;1718;-73
2021/09/19 04:45:41;;;;;;;;;;;21.20;71.90;;;;;;5033142;28;1437;-72
2021/09/19 04:48:07;;;;;;;;;;;21.20;71.90;;;;;;5005206;28;2093;-72
2021/09/19 04:50:32;;;;;;;;;;;21.20;71.80;;;;;;5013708;28;1452;-74
2021/09/19 04:52:58;;;;;;;;;;;21.20;71.90;;;;;;5031846;28;1466;-75
2021/09/19 04:55:23;;;;;;;;;;;21.20;71.80;;;;;;5033484;28;1238;-73
2021/09/19 04:57:48;;;;;;;;;;;21.20;71.70;;;;;;5032839;28;1341;-74
2021/09/19 05:00:14;;;;;;;;;;;21.20;71.70;;;;;;5033174;28;1441;-76
2021/09/19 05:02:40;;;;;;;;;;;21.20;71.60;;;;;;5019640;28;1633;-76
2021/09/19 05:05:05;;;;;;;;;;;21.30;71.60;;;;;;5015456;28;1375;-76
2021/09/19 05:07:31;;;;;;;;;;;21.30;71.50;;;;;;5032581;28;1969;-75
2021/09/19 05:09:56;;;;;;;;;;;21.30;71.40;;;;;;5015592;28;1581;-75
2021/09/19 05:12:22;;;;;;;;;;;21.30;71.30;;;;;;5015278;28;1688;-76
2021/09/19 05:14:49;;;;;;;;;;;21.40;71.40;;;;;;5033615;28;1191;-76
2021/09/19 05:17:15;;;;;;;;;;;21.40;71.20;;;;;;5032737;28;1667;-75
2021/09/19 05:19:40;;;;;;;;;;;21.40;71.20;;;;;;5033283;28;1398;-74
2021/09/19 05:22:06;;;;;;;;;;;21.40;71.10;;;;;;5012797;28;1795;-75
2021/09/19 05:24:31;;;;;;;;;;;21.40;71.00;;;;;;5015040;28;1610;-75
2021/09/19 05:26:56;;;;;;;;;;;21.40;71.00;;;;;;5032299;28;1906;-74
2021/09/19 05:29:22;;;;;;;;;;;21.50;71.00;;;;;;5032767;28;1359;-75
2021/09/19 05:31:47;;;;;;;;;;;21.50;70.90;;;;;;5032456;28;1570;-75
2021/09/19 05:34:13;;;;;;;;;;;21.50;70.90;;;;;;5015217;28;1375;-74
2021/09/19 05:36:38;;;;;;;;;;;21.50;70.80;;;;;;5032177;28;1444;-75
2021/09/19 05:39:04;;;;;;;;;;;21.50;70.80;;;;;;5015405;28;1684;-73
2021/09/19 05:41:31;;;;;;;;;;;21.50;70.70;;;;;;5032508;28;1327;-71
2021/09/19 05:43:57;;;;;;;;;;;21.50;70.70;;;;;;5011579;28;1630;-76
2021/09/19 05:46:22;;;;;;;;;;;21.50;71.40;;;;;;5032071;28;1895;-73
2021/09/19 05:48:47;;;;;;;;;;;21.50;70.60;;;;;;5020975;28;2159;-72
2021/09/19 05:51:13;;;;;;;;;;;21.60;70.70;;;;;;5010108;28;1318;-74
2021/09/19 05:53:38;;;;;;;;;;;21.60;70.60;;;;;;5005340;28;1655;-74
2021/09/19 05:56:04;;;;;;;;;;;21.50;70.50;;;;;;5028695;28;1746;-75
2021/09/19 05:58:29;;;;;;;;;;;21.60;70.60;;;;;;5024103;28;1549;-74
2021/09/19 06:00:55;;;;;;;;;;;21.60;70.60;;;;;;5032304;28;1427;-72
2021/09/19 06:03:23;;;;;;;;;;;21.60;70.60;;;;;;5032631;28;1634;-72
2021/09/19 06:05:48;;;;;;;;;;;21.60;70.50;;;;;;5035224;28;1503;-72
2021/09/19 06:08:13;;;;;;;;;;;21.60;70.50;;;;;;5018492;28;2045;-72
2021/09/19 06:10:39;;;;;;;;;;;21.60;70.50;;;;;;5036051;28;1427;-68
2021/09/19 06:13:04;;;;;;;;;;;21.60;70.50;;;;;;5036235;28;1645;-71
2021/09/19 06:15:30;;;;;;;;;;;21.60;70.50;;;;;;5036639;28;1325;-75
2021/09/19 06:17:55;;;;;;;;;;;21.70;70.50;;;;;;5018805;28;1381;-75
2021/09/19 06:20:23;;;;;;;;;;;21.60;70.40;;;;;;5036597;28;1553;-78
2021/09/19 06:22:48;;;;;;;;;;;21.70;70.40;;;;;;5018496;28;1080;-76
2021/09/19 06:25:14;;;;;;;;;;;21.70;70.30;;;;;;5035753;28;1437;-75
2021/09/19 06:27:39;;;;;;;;;;;21.70;70.30;;;;;;5017684;28;1965;-78
2021/09/19 06:30:05;;;;;;;;;;;21.70;70.30;;;;;;5035780;28;1868;-75
2021/09/19 06:32:31;;;;;;;;;;;21.70;70.20;;;;;;5018139;28;1031;-76
2021/09/19 06:34:57;;;;;;;;;;;21.70;70.20;;;;;;5017064;28;1613;-76
2021/09/19 06:37:23;;;;;;;;;;;21.70;70.20;;;;;;5033984;28;1646;-76
2021/09/19 06:39:49;;;;;;;;;;;21.70;70.10;;;;;;5018126;28;1660;-69
2021/09/19 06:42:14;;;;;;;;;;;21.70;70.20;;;;;;5035676;28;1391;-73
2021/09/19 06:44:40;;;;;;;;;;;21.70;70.10;;;;;;5035447;28;1431;-75
2021/09/19 06:47:05;;;;;;;;;;;21.70;70.10;;;;;;5035090;28;1917;-73
2021/09/19 06:49:30;;;;;;;;;;;21.80;70.00;;;;;;5035352;28;1414;-74
2021/09/19 06:51:56;;;;;;;;;;;21.70;70.00;;;;;;5017673;28;1061;-71
2021/09/19 06:54:21;;;;;;;;;;;21.80;70.10;;;;;;5017692;28;1693;-73
2021/09/19 06:56:48;;;;;;;;;;;21.80;70.00;;;;;;5034984;28;1598;-73
2021/09/19 06:59:13;;;;;;;;;;;21.80;70.00;;;;;;5035060;28;1417;-72
2021/09/19 07:01:39;;;;;;;;;;;21.80;70.00;;;;;;5017409;28;1612;-72
2021/09/19 07:04:04;;;;;;;;;;;21.80;69.90;;;;;;5035114;28;1696;-71
2021/09/19 07:06:30;;;;;;;;;;;21.80;69.90;;;;;;5034723;28;1975;-72
2021/09/19 07:08:56;;;;;;;;;;;21.80;69.90;;;;;;5034897;28;1399;-71
2021/09/19 07:11:21;;;;;;;;;;;21.80;69.90;;;;;;5013009;28;2450;-72
2021/09/19 07:13:46;;;;;;;;;;;21.80;69.90;;;;;;5034209;28;1355;-71
2021/09/19 07:16:12;;;;;;;;;;;21.80;69.80;;;;;;5014896;28;1574;-71
2021/09/19 07:18:37;;;;;;;;;;;21.80;69.80;;;;;;5034334;28;1554;-71
2021/09/19 07:21:03;;;;;;;;;;;21.80;69.90;;;;;;5034262;28;1640;-71
2021/09/19 07:23:28;;;;;;;;;;;21.80;69.80;;;;;;5033892;28;1370;-73
2021/09/19 07:25:54;;;;;;;;;;;21.80;69.90;;;;;;5034294;28;1344;-73
2021/09/19 07:28:19;;;;;;;;;;;21.80;70.60;;;;;;5034292;28;1871;-72
2021/09/19 07:30:44;;;;;;;;;;;21.80;69.90;;;;;;5022528;28;1634;-73
2021/09/19 07:33:10;;;;;;;;;;;21.80;69.90;;;;;;5016812;28;1641;-73
2021/09/19 07:35:36;;;;;;;;;;;21.80;69.90;;;;;;5016659;28;1690;-73
2021/09/19 07:38:01;;;;;;;;;;;21.80;70.00;;;;;;4997521;28;1607;-72
2021/09/19 07:40:30;;;;;;;;;;;21.80;70.00;;;;;;5034437;28;1167;-73
2021/09/19 07:42:57;;;;;;;;;;;21.80;70.10;;;;;;5016915;28;1631;-73
2021/09/19 07:45:23;;;;;;;;;;;21.70;70.80;;;;;;4997372;28;1670;-72
2021/09/19 07:47:48;;;;;;;;;;;21.70;70.00;;;;;;5011061;28;2012;-73
2021/09/19 07:50:14;;;;;;;;;;;21.70;70.10;;;;;;5034207;28;1667;-72
2021/09/19 07:52:40;;;;;;;;;;;21.70;70.10;;;;;;5034142;28;1589;-71
2021/09/19 07:55:05;;;;;;;;;;;21.70;70.10;;;;;;5034289;28;1248;-72
2021/09/19 07:57:31;;;;;;;;;;;21.70;70.20;;;;;;5033501;28;1642;-72
2021/09/19 07:59:56;;;;;;;;;;;21.70;70.20;;;;;;5016791;28;1684;-71
2021/09/19 08:02:21;;;;;;;;;;;21.70;70.20;;;;;;5033928;28;1582;-72
2021/09/19 08:04:47;;;;;;;;;;;21.70;70.20;;;;;;5034043;28;1384;-72
2021/09/19 08:07:13;;;;;;;;;;;21.70;70.30;;;;;;5033569;28;1906;-72
2021/09/19 08:09:38;;;;;;;;;;;21.70;70.30;;;;;;5034059;28;1576;-72
2021/09/19 08:12:04;;;;;;;;;;;21.70;70.30;;;;;;5033634;28;1460;-71
2021/09/19 08:14:29;;;;;;;;;;;21.70;70.40;;;;;;5034170;28;1635;-71
2021/09/19 08:16:55;;;;;;;;;;;21.60;70.30;;;;;;5015842;28;1608;-72
2021/09/19 08:19:21;;;;;;;;;;;21.70;70.40;;;;;;5033953;28;1469;-72
2021/09/19 08:21:47;;;;;;;;;;;21.60;70.30;;;;;;5033638;28;1370;-72
2021/09/19 08:24:12;;;;;;;;;;;21.60;70.40;;;;;;5033681;28;1430;-72
2021/09/19 08:26:38;;;;;;;;;;;21.60;70.40;;;;;;5033031;28;1902;-72
2021/09/19 08:29:04;;;;;;;;;;;21.60;70.40;;;;;;5015909;28;1321;-74
2021/09/19 08:31:30;;;;;;;;;;;21.60;70.40;;;;;;5015955;28;1440;-73
2021/09/19 08:33:55;;;;;;;;;;;21.60;70.50;;;;;;5033422;28;974;-73
2021/09/19 08:36:20;;;;;;;;;;;21.60;70.50;;;;;;5032854;28;1503;-72
2021/09/19 08:38:46;;;;;;;;;;;21.60;70.50;;;;;;5033328;28;1694;-71
2021/09/19 08:41:13;;;;;;;;;;;21.60;70.60;;;;;;5033398;28;1253;-74
2021/09/19 08:43:39;;;;;;;;;;;21.60;70.60;;;;;;5033513;28;1722;-74
2021/09/19 08:46:04;;;;;;;;;;;21.60;70.60;;;;;;5032917;28;1207;-72
2021/09/19 08:48:32;;;;;;;;;;;21.60;70.60;;;;;;5033146;28;1906;-70
2021/09/19 08:50:57;;;;;;;;;;;21.60;70.60;;;;;;5029351;28;1782;-74
2021/09/19 08:53:25;;;;;;;;;;;21.60;70.60;;;;;;5027691;28;1419;-74
2021/09/19 08:55:50;;;;;;;;;;;21.60;70.60;;;;;;5012653;28;2103;-73
2021/09/19 08:58:15;;;;;;;;;;;21.60;70.70;;;;;;5035054;28;1407;-73
2021/09/19 09:00:44;;;;;;;;;;;21.60;70.70;;;;;;4996203;28;1693;-74
2021/09/19 09:03:11;;;;;;;;;;;21.60;70.70;;;;;;5006104;28;1546;-74
2021/09/19 09:05:37;;;;;;;;;;;21.50;70.70;;;;;;5015082;28;1495;-74
2021/09/19 09:08:03;;;;;;;;;;;21.60;70.70;;;;;;5030989;28;1977;-73
2021/09/19 09:10:36;;;;;;;;;;;21.50;70.70;;;;;;5013010;28;1571;-75
2021/09/19 09:13:02;;;;;;;;;;;21.50;70.70;;;;;;5015229;28;1624;-72
2021/09/19 09:15:32;;;;;;;;;;;21.50;70.80;;;;;;5015149;28;1638;-73
2021/09/19 09:17:58;;;;;;;;;;;21.50;70.80;;;;;;5014944;28;1594;-73
2021/09/19 09:20:23;;;;;;;;;;;21.50;70.80;;;;;;5033189;28;1374;-73
2021/09/19 09:22:49;;;;;;;;;;;21.50;70.90;;;;;;5032732;28;1373;-74
2021/09/19 09:25:15;;;;;;;;;;;21.50;70.90;;;;;;5032832;28;1427;-74
2021/09/19 09:27:41;;;;;;;;;;;21.50;70.90;;;;;;5032374;28;1910;-72
2021/09/19 09:30:08;;;;;;;;;;;21.50;70.90;;;;;;5032755;28;1422;-74
2021/09/19 09:32:51;;;;;;;;;;;21.50;70.90;;;;;;5032825;28;1675;-74
2021/09/19 09:35:17;;;;;;;;;;;21.50;70.90;;;;;;5029472;28;1948;-73
2021/09/19 09:37:42;;;;;;;;;;;21.50;70.90;;;;;;5025887;23;3764;-69
2021/09/19 09:40:15;;;;;;;;;;;21.50;70.90;;;;;;5038103;28;1185;-70
2021/09/19 09:42:40;;;;;;;;;;;21.50;71.00;;;;;;5046443;28;2018;-70
2021/09/19 09:45:10;;;;;;;;;;;21.50;71.00;;;;;;5044051;28;1975;-70
2021/09/19 09:47:39;;;;;;;;;;;21.50;71.00;;;;;;5033068;28;2309;-71
2021/09/19 09:50:05;;;;;;;;;;;21.50;71.10;;;;;;4988417;28;1659;-71
2021/09/19 09:52:31;;;;;;;;;;;21.50;71.10;;;;;;5020021;28;1570;-71
2021/09/19 09:54:57;;;;;;;;;;;21.50;71.10;;;;;;5022854;28;1336;-71
2021/09/19 09:57:35;;;;;;;;;;;21.50;71.90;;;;;;4998268;28;1523;-71
2021/09/19 10:00:02;;;;;;;;;;;21.40;71.10;;;;;;5004699;28;1428;-72
2021/09/19 10:02:27;;;;;;;;;;;21.40;71.10;;;;;;5002506;28;1286;-72
2021/09/19 10:04:54;;;;;;;;;;;21.50;71.20;;;;;;5010872;28;1188;-71
2021/09/19 10:07:19;;;;;;;;;;;21.40;71.10;;;;;;5007353;28;1959;-72
2021/09/19 10:09:45;;;;;;;;;;;21.40;71.20;;;;;;5008951;28;1466;-71
2021/09/19 10:12:10;;;;;;;;;;;21.40;71.10;;;;;;5015249;28;1429;-71
2021/09/19 10:14:36;;;;;;;;;;;21.40;71.20;;;;;;5015033;28;1461;-71
2021/09/19 10:17:01;;;;;;;;;;;21.40;71.20;;;;;;5014573;28;1294;-72
2021/09/19 10:19:27;;;;;;;;;;;21.40;71.20;;;;;;5015999;28;1405;-71
2021/09/19 10:21:52;;;;;;;;;;;21.40;71.20;;;;;;5016085;28;1372;-71
2021/09/19 10:24:18;;;;;;;;;;;21.40;71.20;;;;;;5016064;28;1175;-72
2021/09/19 10:26:53;;;;;;;;;;;21.40;71.20;;;;;;5006400;28;1962;-72
2021/09/19 10:29:19;;;;;;;;;;;21.40;71.20;;;;;;5008477;28;1522;-70
2021/09/19 10:31:44;;;;;;;;;;;21.40;71.20;;;;;;4974255;28;1508;-71
2021/09/19 10:34:10;;;;;;;;;;;21.40;71.20;;;;;;5006405;28;1325;-73
2021/09/19 10:36:49;;;;;;;;;;;21.40;71.20;;;;;;5010308;28;1383;-70
2021/09/19 10:39:23;;;;;;;;;;;21.40;71.30;;;;;;5014746;28;1140;-73
2021/09/19 10:42:10;;;;;;;;;;;21.40;71.30;;;;;;4998174;28;1518;-72
2021/09/19 10:44:44;;;;;;;;;;;21.40;71.30;;;;;;5015584;28;1343;-72
2021/09/19 10:47:13;;;;;;;;;;;21.40;71.30;;;;;;5015307;28;1974;-72
2021/09/19 10:49:39;;;;;;;;;;;21.40;71.30;;;;;;4998019;28;1664;-74
2021/09/19 10:52:04;;;;;;;;;;;21.40;71.30;;;;;;4996927;28;1693;-71
2021/09/19 10:54:45;;;;;;;;;;;21.40;71.40;;;;;;4985184;28;1659;-72
2021/09/19 10:57:13;;;;;;;;;;;21.40;71.40;;;;;;5015246;28;1369;-73
2021/09/19 10:59:58;;;;;;;;;;;21.40;71.40;;;;;;5009915;28;1718;-73
2021/09/19 11:02:29;;;;;;;;;;;21.40;71.40;;;;;;5017667;28;1454;-72
2021/09/19 11:05:13;;;;;;;;;;;21.40;71.40;;;;;;4997432;28;1381;-74
2021/09/19 11:07:41;;;;;;;;;;;21.40;71.50;;;;;;5014638;28;1910;-72
2021/09/19 11:10:12;;;;;;;;;;;21.40;71.50;;;;;;5015285;28;1393;-72
2021/09/19 11:12:39;;;;;;;;;;;21.40;71.50;;;;;;5014128;28;1235;-72
2021/09/19 11:15:06;;;;;;;;;;;21.40;71.50;;;;;;5014896;28;832;-72
2021/09/19 11:17:33;;;;;;;;;;;21.40;71.50;;;;;;4997388;28;1515;-71
2021/09/19 11:20:10;;;;;;;;;;;21.40;71.50;;;;;;4997455;28;1066;-72
2021/09/19 11:22:36;;;;;;;;;;;21.40;71.50;;;;;;5015127;28;1654;-72
2021/09/19 11:25:04;;;;;;;;;;;21.40;71.50;;;;;;4997331;28;1354;-72
2021/09/19 11:27:30;;;;;;;;;;;21.40;71.50;;;;;;5010997;28;1903;-72
2021/09/19 11:29:56;;;;;;;;;;;21.40;71.50;;;;;;5014839;28;1565;-72
2021/09/19 11:32:21;;;;;;;;;;;21.40;71.60;;;;;;5014723;28;1712;-71
2021/09/19 11:34:47;;;;;;;;;;;21.40;71.60;;;;;;4991445;28;1640;-71
2021/09/19 11:37:12;;;;;;;;;;;21.30;71.50;;;;;;5003687;28;1576;-71
2021/09/19 11:39:38;;;;;;;;;;;21.30;71.50;;;;;;5003877;28;1401;-72
2021/09/19 11:42:05;;;;;;;;;;;21.30;71.50;;;;;;5014751;28;1677;-70
2021/09/19 11:44:30;;;;;;;;;;;21.30;71.50;;;;;;4996843;28;1438;-71
2021/09/19 11:46:55;;;;;;;;;;;21.30;71.50;;;;;;4996650;28;1890;-70
2021/09/19 11:49:21;;;;;;;;;;;21.40;71.60;;;;;;5014267;28;1413;-71
2021/09/19 11:51:47;;;;;;;;;;;21.30;71.50;;;;;;5014589;28;1655;-71
2021/09/19 11:54:16;;;;;;;;;;;21.30;71.50;;;;;;4996935;28;1388;-70
2021/09/19 11:56:42;;;;;;;;;;;21.30;71.60;;;;;;4996594;28;1406;-71
2021/09/19 11:59:09;;;;;;;;;;;21.30;71.60;;;;;;4996538;28;1408;-70
2021/09/19 12:01:35;;;;;;;;;;;21.30;71.50;;;;;;5014071;28;1338;-71
2021/09/19 12:04:04;;;;;;;;;;;21.30;71.50;;;;;;5013915;28;1353;-70
2021/09/19 12:06:29;;;;;;;;;;;21.30;71.60;;;;;;5013902;28;1910;-70
2021/09/19 12:08:55;;;;;;;;;;;21.30;71.60;;;;;;5014079;28;1654;-71
2021/09/19 12:11:20;;;;;;;;;;;21.30;71.60;;;;;;5013088;28;1380;-69
2021/09/19 12:13:46;;;;;;;;;;;21.30;71.60;;;;;;5013804;28;1641;-70
2021/09/19 12:16:13;;;;;;;;;;;21.30;71.60;;;;;;5012588;28;1367;-70
2021/09/19 12:18:39;;;;;;;;;;;21.30;71.60;;;;;;5012852;28;1238;-70
2021/09/19 12:21:11;;;;;;;;;;;21.30;71.60;;;;;;5012892;28;1030;-71
2021/09/19 12:24:03;;;;;;;;;;;21.30;71.40;;;;;;5014001;28;1029;-71
2021/09/19 12:26:29;;;;;;;;;;;21.30;70.40;;;;;;5009376;28;1898;-71
2021/09/19 12:28:55;;;;;;;;;;;21.30;67.70;;;;;;5012537;28;1847;-71
2021/09/19 12:31:37;;;;;;;;;;;21.30;68.90;;;;;;5012574;28;1069;-72
2021/09/19 12:34:02;;;;;;;;;;;21.30;67.50;;;;;;5007519;28;1367;-71
2021/09/19 12:36:29;;;;;;;;;;;21.30;65.90;;;;;;5004577;28;1581;-72
2021/09/19 12:38:54;;;;;;;;;;;21.30;66.80;;;;;;5004883;28;1581;-72
2021/09/19 12:41:20;;;;;;;;;;;21.30;65.50;;;;;;4989873;28;1542;-69
2021/09/19 12:43:45;;;;;;;;;;;21.30;65.10;;;;;;5002447;28;1403;-71
2021/09/19 12:46:12;;;;;;;;;;;21.30;64.60;;;;;;4995742;28;1587;-72
2021/09/19 12:48:37;;;;;;;;;;;21.30;64.10;;;;;;4979508;28;1910;-72
2021/09/19 12:51:03;;;;;;;;;;;21.30;64.00;;;;;;4993912;28;1450;-72
2021/09/19 12:53:30;;;;;;;;;;;21.30;64.10;;;;;;5011998;28;1850;-72
2021/09/19 12:55:55;;;;;;;;;;;21.30;64.10;;;;;;5007509;28;1596;-72
2021/09/19 12:58:21;;;;;;;;;;;21.30;63.90;;;;;;5011750;28;1690;-72
2021/09/19 13:00:47;;;;;;;;;;;21.40;63.40;;;;;;4992458;28;1383;-72
2021/09/19 13:03:12;;;;;;;;;;;21.40;62.90;;;;;;5013279;28;883;-72
2021/09/19 13:05:38;;;;;;;;;;;21.40;62.00;;;;;;5013034;28;1650;-73
2021/09/19 13:08:03;;;;;;;;;;;21.40;61.70;;;;;;4986469;28;1965;-73
2021/09/19 13:10:29;;;;;;;;;;;21.40;61.50;;;;;;4995784;28;1671;-72
2021/09/19 13:12:54;;;;;;;;;;;21.40;61.60;;;;;;5015086;28;2230;-73
2021/09/19 13:15:21;;;;;;;;;;;21.40;61.10;;;;;;4992303;28;1403;-72
2021/09/19 13:17:47;;;;;;;;;;;21.40;61.20;;;;;;5020296;28;1328;-72
2021/09/19 13:20:12;;;;;;;;;;;21.40;61.10;;;;;;5023299;28;1245;-73
2021/09/19 13:22:38;;;;;;;;;;;21.40;60.00;;;;;;5021044;28;1875;-72
2021/09/19 13:25:03;;;;;;;;;;;21.40;60.90;;;;;;5008957;28;1368;-72
2021/09/19 13:27:29;;;;;;;;;;;21.40;61.30;;;;;;5012812;28;1961;-72
2021/09/19 13:29:54;;;;;;;;;;;21.40;61.50;;;;;;5011867;28;1351;-72
2021/09/19 13:32:20;;;;;;;;;;;21.40;62.00;;;;;;5013138;28;1594;-72
2021/09/19 13:34:45;;;;;;;;;;;21.40;62.40;;;;;;5012626;28;1437;-73
2021/09/19 13:37:10;;;;;;;;;;;21.50;62.90;;;;;;5010414;28;2159;-72
2021/09/19 13:39:36;;;;;;;;;;;21.50;63.00;;;;;;5007926;28;1452;-72
2021/09/19 13:42:01;;;;;;;;;;;21.50;63.50;;;;;;5023750;28;1498;-72
2021/09/19 13:44:27;;;;;;;;;;;21.50;63.80;;;;;;4993336;28;1620;-71
2021/09/19 13:46:54;;;;;;;;;;;21.50;64.20;;;;;;5003567;28;1907;-71
2021/09/19 13:49:23;;;;;;;;;;;21.50;64.40;;;;;;4990392;28;1437;-72
2021/09/19 13:51:49;;;;;;;;;;;21.50;64.00;;;;;;4995923;28;1721;-71
2021/09/19 13:54:15;;;;;;;;;;;21.60;64.10;;;;;;5012989;28;1230;-72
2021/09/19 13:56:40;;;;;;;;;;;21.60;63.90;;;;;;5011274;28;1436;-72
2021/09/19 13:59:05;;;;;;;;;;;21.60;63.80;;;;;;5012897;28;1029;-71
2021/09/19 14:01:31;;;;;;;;;;;21.60;64.20;;;;;;5016006;28;1511;-73
2021/09/19 14:03:56;;;;;;;;;;;21.60;64.50;;;;;;5013966;28;1679;-72
2021/09/19 14:06:22;;;;;;;;;;;21.60;64.70;;;;;;5010999;28;1903;-73
2021/09/19 14:08:47;;;;;;;;;;;21.60;64.70;;;;;;4995089;28;1495;-71
2021/09/19 14:11:13;;;;;;;;;;;21.60;64.70;;;;;;5012831;28;1657;-72
2021/09/19 14:13:38;;;;;;;;;;;21.60;64.80;;;;;;5011524;28;1452;-73
2021/09/19 14:16:04;;;;;;;;;;;21.60;64.20;;;;;;4994827;28;1674;-73
2021/09/19 14:18:29;;;;;;;;;;;21.60;64.20;;;;;;5012338;28;1514;-72
2021/09/19 14:20:54;;;;;;;;;;;21.60;64.50;;;;;;5011259;28;1111;-73
2021/09/19 14:23:20;;;;;;;;;;;21.60;64.50;;;;;;5012509;28;1402;-73
2021/09/19 14:25:46;;;;;;;;;;;21.60;64.30;;;;;;5013719;28;1530;-72